createdAt,value
2018-12-17T00:02:10.649Z,0.10
2018-12-17T00:04:38.966Z,0.10
2018-12-17T00:07:07.146Z,0.20
2018-12-17T00:09:35.279Z,0.20
2018-12-17T00:12:03.404Z,0.20
2018-12-17T00:14:31.602Z,0.30
2018-12-17T00:16:59.732Z,0.30
2018-12-17T00:19:27.875Z,0.30
2018-12-17T00:21:56.148Z,0.20
2018-12-17T00:24:24.272Z,0.10
2018-12-17T00:26:52.369Z,0.20
2018-12-17T00:29:20.547Z,0.20
2018-12-17T00:31:48.676Z,0.10
2018-12-17T00:34:16.863Z,0.10
2018-12-17T00:36:44.996Z,0.20
2018-12-17T00:39:13.108Z,0.20
2018-12-17T00:41:41.268Z,0.10
2018-12-17T00:44:09.408Z,0.10
2018-12-17T00:46:37.635Z,0.20
2018-12-17T00:49:05.891Z,0.10
2018-12-17T00:51:34.072Z,0.20
2018-12-17T00:54:02.290Z,0.20
2018-12-17T00:56:30.367Z,0.20
2018-12-17T00:58:58.498Z,0.30
2018-12-17T01:01:26.672Z,0.20
2018-12-17T01:03:54.819Z,0.10
2018-12-17T01:06:22.924Z,0.20
2018-12-17T01:08:51.079Z,0.20
2018-12-17T01:11:19.372Z,0.30
2018-12-17T01:13:47.516Z,0.20
2018-12-17T01:16:15.688Z,0.20
2018-12-17T01:18:43.864Z,0.20
2018-12-17T01:21:11.995Z,0.20
2018-12-17T01:23:40.481Z,0.20
2018-12-17T01:26:08.750Z,0.20
2018-12-17T01:28:37.244Z,0.30
2018-12-17T01:31:05.448Z,0.30
2018-12-17T01:33:33.607Z,0.20
2018-12-17T01:36:01.720Z,0.20
2018-12-17T01:38:29.856Z,0.10
2018-12-17T01:40:58.023Z,0.20
2018-12-17T01:43:26.148Z,0.30
2018-12-17T01:45:54.308Z,0.30
2018-12-17T01:48:22.607Z,0.20
2018-12-17T01:50:50.700Z,0.30
2018-12-17T01:53:18.808Z,0.30
2018-12-17T01:55:46.996Z,0.20
2018-12-17T01:58:15.163Z,0.30
2018-12-17T02:00:43.316Z,0.40
2018-12-17T02:03:11.487Z,0.40
2018-12-17T02:05:39.602Z,0.30
2018-12-17T02:08:07.742Z,0.20
2018-12-17T02:10:35.895Z,0.20
2018-12-17T02:13:04.036Z,0.20
2018-12-17T02:15:32.275Z,0.20
2018-12-17T02:18:00.464Z,0.20
2018-12-17T02:20:28.651Z,0.20
2018-12-17T02:22:56.787Z,0.20
2018-12-17T02:25:24.900Z,0.20
2018-12-17T02:27:53.083Z,0.20
2018-12-17T02:30:21.444Z,0.40
2018-12-17T02:32:49.577Z,0.50
2018-12-17T02:35:17.692Z,0.40
2018-12-17T02:37:45.896Z,0.30
2018-12-17T02:40:14.032Z,0.30
2018-12-17T02:42:42.124Z,0.30
2018-12-17T02:45:10.297Z,0.30
2018-12-17T02:47:38.429Z,0.30
2018-12-17T02:50:06.675Z,0.30
2018-12-17T02:52:34.863Z,0.30
2018-12-17T02:55:03.023Z,0.30
2018-12-17T02:57:32.477Z,0.20
2018-12-17T03:00:00.784Z,0.30
2018-12-17T03:02:28.920Z,0.30
2018-12-17T03:04:57.034Z,0.30
2018-12-17T03:07:25.196Z,0.40
2018-12-17T03:09:53.349Z,0.40
2018-12-17T03:12:21.564Z,0.40
2018-12-17T03:14:49.672Z,0.40
2018-12-17T03:17:17.812Z,0.40
2018-12-17T03:19:45.983Z,0.40
2018-12-17T03:22:14.119Z,0.30
2018-12-17T03:24:42.189Z,0.20
2018-12-17T03:27:10.487Z,0.30
2018-12-17T03:29:38.620Z,0.30
2018-12-17T03:32:06.746Z,0.20
2018-12-17T03:34:34.920Z,0.30
2018-12-17T03:37:03.040Z,0.30
2018-12-17T03:39:31.171Z,0.40
2018-12-17T03:41:59.376Z,0.30
2018-12-17T03:44:27.491Z,0.30
2018-12-17T03:46:55.586Z,0.40
2018-12-17T03:49:23.760Z,0.50
2018-12-17T03:51:51.914Z,0.40
2018-12-17T03:54:20.083Z,0.40
2018-12-17T03:56:48.247Z,0.50
2018-12-17T03:59:16.420Z,0.50
2018-12-17T04:01:44.568Z,0.40
2018-12-17T04:04:12.752Z,0.50
2018-12-17T04:06:40.832Z,0.60
2018-12-17T04:09:09.063Z,0.50
2018-12-17T04:11:37.622Z,0.50
2018-12-17T04:14:05.852Z,0.60
2018-12-17T04:16:33.985Z,0.50
2018-12-17T04:19:02.167Z,0.50
2018-12-17T04:21:30.285Z,0.50
2018-12-17T04:23:58.439Z,0.50
2018-12-17T04:26:26.723Z,0.40
2018-12-17T04:28:54.906Z,0.50
2018-12-17T04:31:23.096Z,0.50
2018-12-17T04:33:51.330Z,0.50
2018-12-17T04:36:19.419Z,0.40
2018-12-17T04:38:47.621Z,0.40
2018-12-17T04:41:15.838Z,0.50
2018-12-17T04:43:44.024Z,0.40
2018-12-17T04:46:12.136Z,0.50
2018-12-17T04:48:40.373Z,0.50
2018-12-17T04:51:08.645Z,0.50
2018-12-17T04:53:36.846Z,0.40
2018-12-17T04:56:05.051Z,0.30
2018-12-17T04:58:33.615Z,0.20
2018-12-17T05:01:01.788Z,0.20
2018-12-17T05:03:29.990Z,0.20
2018-12-17T05:05:58.109Z,0.20
2018-12-17T05:08:26.227Z,0.10
2018-12-17T05:10:54.357Z,0.20
2018-12-17T05:13:22.511Z,0.20
2018-12-17T05:15:51.668Z,0.20
2018-12-17T05:18:19.868Z,0.30
2018-12-17T05:20:48.130Z,0.30
2018-12-17T05:23:16.220Z,0.30
2018-12-17T05:25:44.365Z,0.30
2018-12-17T05:28:12.627Z,0.30
2018-12-17T05:30:40.691Z,0.30
2018-12-17T05:33:08.986Z,0.20
2018-12-17T05:35:37.212Z,0.20
2018-12-17T05:38:05.412Z,0.30
2018-12-17T05:40:33.529Z,0.30
2018-12-17T05:43:01.721Z,0.30
2018-12-17T05:45:29.841Z,0.20
2018-12-17T05:47:58.004Z,0.10
2018-12-17T05:50:26.182Z,0.10
2018-12-17T05:52:54.301Z,0.20
2018-12-17T05:55:22.412Z,0.20
2018-12-17T05:57:50.668Z,0.20
2018-12-17T06:00:18.922Z,0.30
2018-12-17T06:02:47.048Z,0.30
2018-12-17T06:05:15.248Z,0.40
2018-12-17T06:07:43.380Z,0.30
2018-12-17T06:10:11.503Z,0.30
2018-12-17T06:12:39.691Z,0.20
2018-12-17T06:15:07.820Z,0.20
2018-12-17T06:17:35.968Z,0.20
2018-12-17T06:20:04.457Z,0.20
2018-12-17T06:22:32.593Z,0.20
2018-12-17T06:25:00.789Z,0.20
2018-12-17T06:27:28.960Z,0.40
2018-12-17T06:29:57.090Z,0.50
2018-12-17T06:32:25.208Z,0.50
2018-12-17T06:34:53.388Z,0.40
2018-12-17T06:37:21.491Z,0.40
2018-12-17T06:39:49.629Z,0.40
2018-12-17T06:42:17.738Z,0.40
2018-12-17T06:44:45.860Z,0.40
2018-12-17T06:47:14.060Z,0.40
2018-12-17T06:49:42.174Z,0.40
2018-12-17T06:52:10.323Z,0.40
2018-12-17T06:54:38.571Z,0.40
2018-12-17T06:57:06.714Z,0.40
2018-12-17T06:59:34.971Z,0.40
2018-12-17T07:02:03.447Z,0.30
2018-12-17T07:04:31.524Z,0.30
2018-12-17T07:06:59.656Z,0.30
2018-12-17T07:09:27.964Z,0.30
2018-12-17T07:11:56.087Z,0.40
2018-12-17T07:14:24.216Z,0.50
2018-12-17T07:16:52.430Z,0.40
2018-12-17T07:19:20.589Z,0.40
2018-12-17T07:21:48.731Z,0.50
2018-12-17T07:24:16.938Z,0.50
2018-12-17T07:26:45.068Z,0.60
2018-12-17T07:29:13.216Z,0.50
2018-12-17T07:31:41.392Z,0.50
2018-12-17T07:34:09.504Z,0.50
2018-12-17T07:36:37.616Z,0.40
2018-12-17T07:39:08.243Z,0.40
2018-12-17T07:41:36.935Z,0.40
2018-12-17T07:44:05.102Z,0.50
2018-12-17T07:46:33.720Z,0.50
2018-12-17T07:49:01.825Z,0.50
2018-12-17T07:51:29.964Z,0.50
2018-12-17T07:53:58.152Z,0.50
2018-12-17T07:56:26.287Z,0.40
2018-12-17T07:58:54.488Z,0.40
2018-12-17T08:01:22.681Z,0.40
2018-12-17T08:03:50.848Z,0.50
2018-12-17T08:06:19.003Z,0.50
2018-12-17T08:08:47.240Z,0.50
2018-12-17T08:11:15.863Z,0.60
2018-12-17T08:13:43.991Z,0.60
2018-12-17T08:16:12.127Z,0.70
2018-12-17T08:18:40.216Z,0.80
2018-12-17T08:21:08.344Z,0.80
2018-12-17T08:23:36.468Z,0.80
2018-12-17T08:26:04.599Z,0.80
2018-12-17T08:28:32.709Z,0.70
2018-12-17T08:31:01.028Z,0.60
2018-12-17T08:33:29.183Z,0.60
2018-12-17T08:35:57.298Z,0.70
2018-12-17T08:38:25.465Z,0.80
2018-12-17T08:40:53.644Z,0.80
2018-12-17T08:43:21.784Z,0.90
2018-12-17T08:45:49.951Z,1.00
2018-12-17T08:48:18.076Z,1.20
2018-12-17T08:50:46.194Z,1.30
2018-12-17T08:53:16.179Z,1.30
2018-12-17T08:55:46.136Z,1.30
2018-12-17T08:58:14.568Z,1.30
2018-12-17T09:00:42.785Z,1.30
2018-12-17T09:03:10.955Z,1.20
2018-12-17T09:05:39.069Z,1.20
2018-12-17T09:08:07.220Z,1.20
2018-12-17T09:10:35.336Z,1.20
2018-12-17T09:13:03.613Z,1.20
2018-12-17T09:15:31.801Z,1.30
2018-12-17T09:17:59.959Z,1.40
2018-12-17T09:20:28.096Z,1.50
2018-12-17T09:22:56.264Z,1.50
2018-12-17T09:25:24.428Z,1.50
2018-12-17T09:27:52.572Z,1.60
2018-12-17T09:30:20.844Z,1.60
2018-12-17T09:32:48.961Z,1.50
2018-12-17T09:35:17.068Z,1.40
2018-12-17T09:37:45.228Z,1.60
2018-12-17T09:40:13.331Z,1.60
2018-12-17T09:42:41.450Z,1.70
2018-12-17T09:45:09.618Z,1.80
2018-12-17T09:47:37.748Z,1.90
2018-12-17T09:50:06.004Z,1.80
2018-12-17T09:52:34.191Z,1.80
2018-12-17T09:55:02.370Z,1.90
2018-12-17T09:57:30.472Z,1.90
2018-12-17T09:59:58.620Z,1.90
2018-12-17T10:02:26.801Z,1.90
2018-12-17T10:04:54.913Z,1.90
2018-12-17T10:07:23.084Z,2.00
2018-12-17T10:09:51.204Z,2.00
2018-12-17T10:12:19.333Z,2.00
2018-12-17T10:14:47.529Z,2.10
2018-12-17T10:17:15.633Z,2.00
2018-12-17T10:19:43.730Z,2.00
2018-12-17T10:22:11.946Z,2.00
2018-12-17T10:24:40.112Z,2.00
2018-12-17T10:27:08.220Z,2.00
2018-12-17T10:29:36.405Z,2.00
2018-12-17T10:32:04.519Z,2.00
2018-12-17T10:34:32.630Z,2.10
2018-12-17T10:37:00.764Z,2.00
2018-12-17T10:39:28.880Z,2.00
2018-12-17T10:41:57.047Z,2.10
2018-12-17T10:44:25.207Z,2.00
2018-12-17T10:46:53.471Z,2.00
2018-12-17T10:49:21.572Z,2.10
2018-12-17T10:51:49.748Z,2.20
2018-12-17T10:54:18.384Z,2.30
2018-12-17T10:56:46.509Z,2.40
2018-12-17T10:59:14.639Z,2.40
2018-12-17T11:01:53.579Z,2.30
2018-12-17T11:04:25.804Z,2.30
2018-12-17T11:06:54.052Z,2.40
2018-12-17T11:09:22.125Z,2.30
2018-12-17T11:11:50.180Z,2.40
2018-12-17T11:14:18.319Z,2.30
2018-12-17T11:16:46.411Z,2.30
2018-12-17T11:19:14.552Z,2.30
2018-12-17T11:21:42.692Z,2.20
2018-12-17T11:24:10.856Z,2.30
2018-12-17T11:26:38.966Z,2.30
2018-12-17T11:29:07.072Z,2.30
2018-12-17T11:31:35.293Z,2.30
2018-12-17T11:34:03.508Z,2.30
2018-12-17T11:36:31.612Z,2.30
2018-12-17T11:38:59.938Z,2.40
2018-12-17T11:41:28.036Z,2.40
2018-12-17T11:43:56.139Z,2.60
2018-12-17T11:46:24.312Z,2.50
2018-12-17T11:48:52.464Z,2.40
2018-12-17T11:51:20.728Z,2.40
2018-12-17T11:53:48.977Z,2.40
2018-12-17T11:56:17.120Z,2.40
2018-12-17T11:58:45.223Z,2.40
2018-12-17T12:01:13.639Z,2.40
2018-12-17T12:06:30.972Z,2.40
2018-12-17T12:08:59.079Z,2.50
2018-12-17T12:11:27.181Z,2.40
2018-12-17T12:13:55.326Z,2.50
2018-12-17T12:16:23.410Z,2.50
2018-12-17T12:18:51.507Z,2.60
2018-12-17T12:21:19.653Z,2.70
2018-12-17T12:23:47.708Z,2.60
2018-12-17T12:26:15.806Z,2.70
2018-12-17T12:28:43.963Z,2.80
2018-12-17T12:31:12.028Z,2.70
2018-12-17T12:33:40.187Z,2.60
2018-12-17T12:36:08.288Z,2.70
2018-12-17T12:38:36.407Z,2.50
2018-12-17T12:41:04.540Z,2.50
2018-12-17T12:43:32.649Z,2.60
2018-12-17T12:46:00.743Z,2.70
2018-12-17T12:48:28.995Z,2.60
2018-12-17T12:50:57.103Z,2.90
2018-12-17T12:53:25.185Z,3.00
2018-12-17T12:55:53.440Z,3.00
2018-12-17T12:58:21.596Z,2.90
2018-12-17T13:00:49.743Z,2.80
2018-12-17T13:03:17.975Z,2.70
2018-12-17T13:05:46.065Z,2.70
2018-12-17T13:08:14.116Z,2.80
2018-12-17T13:10:42.335Z,2.70
2018-12-17T13:13:10.441Z,2.80
2018-12-17T13:15:38.543Z,2.80
2018-12-17T13:18:06.700Z,2.70
2018-12-17T13:20:34.847Z,2.70
2018-12-17T13:23:02.956Z,2.70
2018-12-17T13:25:38.455Z,2.60
2018-12-17T13:28:06.668Z,2.60
2018-12-17T13:30:34.807Z,2.60
2018-12-17T13:35:51.076Z,2.70
2018-12-17T13:38:19.181Z,2.80
2018-12-17T13:40:47.276Z,2.80
2018-12-17T13:45:50.071Z,2.80
2018-12-17T13:48:18.316Z,2.70
2018-12-17T13:50:48.368Z,2.80
2018-12-17T13:53:22.029Z,2.80
2018-12-17T13:55:50.144Z,2.80
2018-12-17T13:58:18.300Z,2.70
2018-12-17T14:00:46.635Z,2.70
2018-12-17T14:03:14.724Z,2.60
2018-12-17T14:05:42.831Z,2.60
2018-12-17T14:08:11.012Z,2.70
2018-12-17T14:10:44.528Z,2.70
2018-12-17T14:13:12.667Z,2.60
2018-12-17T14:15:47.807Z,2.60
2018-12-17T14:18:21.460Z,2.60
2018-12-17T14:20:55.084Z,2.60
2018-12-17T14:23:23.282Z,2.50
2018-12-17T14:25:51.411Z,2.50
2018-12-17T14:28:19.564Z,2.40
2018-12-17T14:30:47.818Z,2.30
2018-12-17T14:33:15.919Z,2.40
2018-12-17T14:35:49.588Z,2.40
2018-12-17T14:38:17.672Z,2.40
2018-12-17T14:40:45.779Z,2.40
2018-12-17T14:43:13.968Z,2.40
2018-12-17T14:45:42.087Z,2.40
2018-12-17T14:48:10.196Z,2.50
2018-12-17T14:50:38.425Z,2.50
2018-12-17T14:53:06.529Z,2.50
2018-12-17T14:55:34.627Z,2.40
2018-12-17T14:58:02.761Z,2.40
2018-12-17T15:00:30.845Z,2.40
2018-12-17T15:02:59.048Z,2.30
2018-12-17T15:05:27.161Z,2.30
2018-12-17T15:07:55.267Z,2.30
2018-12-17T15:10:23.413Z,2.30
2018-12-17T15:12:51.641Z,2.10
2018-12-17T15:15:19.810Z,2.10
2018-12-17T15:17:47.949Z,2.20
2018-12-17T15:20:16.156Z,2.40
2018-12-17T15:22:44.271Z,2.40
2018-12-17T15:25:12.367Z,2.40
2018-12-17T15:27:40.699Z,2.40
2018-12-17T15:30:08.832Z,2.40
2018-12-17T15:32:37.050Z,2.30
2018-12-17T15:35:05.278Z,2.20
2018-12-17T15:37:33.376Z,2.10
2018-12-17T15:40:01.617Z,2.10
2018-12-17T15:42:29.920Z,2.10
2018-12-17T15:44:57.999Z,2.10
2018-12-17T15:47:26.151Z,2.10
2018-12-17T15:49:54.303Z,2.10
2018-12-17T15:52:22.720Z,2.20
2018-12-17T15:54:50.857Z,2.20
2018-12-17T15:57:19.023Z,2.20
2018-12-17T15:59:47.308Z,2.20
2018-12-17T16:02:15.414Z,2.20
2018-12-17T16:04:43.591Z,2.30
2018-12-17T16:07:11.744Z,2.30
2018-12-17T16:09:39.849Z,2.20
2018-12-17T16:12:08.008Z,2.20
2018-12-17T16:14:36.234Z,2.20
2018-12-17T16:17:04.383Z,2.30
2018-12-17T16:19:32.635Z,2.20
2018-12-17T16:22:00.773Z,2.20
2018-12-17T16:24:28.965Z,2.30
2018-12-17T16:26:57.159Z,2.20
2018-12-17T16:29:25.350Z,2.20
2018-12-17T16:31:57.240Z,2.20
2018-12-17T16:34:23.918Z,2.30
2018-12-17T16:36:52.307Z,2.30
2018-12-17T16:39:20.533Z,2.30
2018-12-17T16:41:48.761Z,2.30
2018-12-17T16:44:16.948Z,2.30
2018-12-17T16:46:45.216Z,2.30
2018-12-17T16:49:13.280Z,2.30
2018-12-17T16:51:41.415Z,2.30
2018-12-17T16:54:09.608Z,2.30
2018-12-17T16:56:37.771Z,2.20
2018-12-17T16:59:05.876Z,2.10
2018-12-17T17:01:34.044Z,2.30
2018-12-17T17:04:02.227Z,2.20
2018-12-17T17:06:30.346Z,2.30
2018-12-17T17:08:59.005Z,2.30
2018-12-17T17:11:27.200Z,2.30
2018-12-17T17:13:55.380Z,2.30
2018-12-17T17:16:23.467Z,2.20
2018-12-17T17:18:51.695Z,2.20
2018-12-17T17:21:21.025Z,2.10
2018-12-17T17:23:49.116Z,2.20
2018-12-17T17:26:17.235Z,2.20
2018-12-17T17:28:45.389Z,2.20
2018-12-17T17:31:13.484Z,2.20
2018-12-17T17:33:41.652Z,2.30
2018-12-17T17:36:09.769Z,2.30
2018-12-17T17:38:37.911Z,2.30
2018-12-17T17:41:06.022Z,2.20
2018-12-17T17:43:34.123Z,2.20
2018-12-17T17:46:02.241Z,2.20
2018-12-17T17:48:30.337Z,2.20
2018-12-17T17:50:58.496Z,2.10
2018-12-17T17:53:26.606Z,2.30
2018-12-17T17:55:54.743Z,2.30
2018-12-17T17:58:22.884Z,2.30
2018-12-17T18:00:51.040Z,2.40
2018-12-17T18:03:19.384Z,2.30
2018-12-17T18:05:47.484Z,2.40
2018-12-17T18:08:15.596Z,2.30
2018-12-17T18:10:43.791Z,2.40
2018-12-17T18:16:20.896Z,2.20
2018-12-17T18:18:49.012Z,2.20
2018-12-17T18:21:17.132Z,2.10
2018-12-17T18:23:45.424Z,2.00
2018-12-17T18:26:13.505Z,2.20
2018-12-17T18:28:41.598Z,2.30
2018-12-17T18:31:10.153Z,2.30
2018-12-17T18:33:44.598Z,2.30
2018-12-17T18:36:13.027Z,2.40
2018-12-17T18:38:41.224Z,2.40
2018-12-17T18:41:09.412Z,2.40
2018-12-17T18:43:37.767Z,2.40
2018-12-17T18:46:06.051Z,2.40
2018-12-17T18:48:34.164Z,2.40
2018-12-17T18:51:02.412Z,2.40
2018-12-17T18:53:30.507Z,2.40
2018-12-17T18:55:58.702Z,2.40
2018-12-17T18:58:27.024Z,2.50
2018-12-17T19:00:55.123Z,2.50
2018-12-17T19:03:23.233Z,2.50
2018-12-17T19:05:51.477Z,2.50
2018-12-17T19:08:25.988Z,2.60
2018-12-17T19:10:54.140Z,2.60
2018-12-17T19:13:22.248Z,2.70
2018-12-17T19:15:50.357Z,2.60
2018-12-17T19:18:18.532Z,2.50
2018-12-17T19:20:46.651Z,2.40
2018-12-17T19:23:14.882Z,2.40
2018-12-17T19:25:43.076Z,2.50
2018-12-17T19:28:11.184Z,2.60
2018-12-17T19:30:39.316Z,2.70
2018-12-17T19:33:07.468Z,2.60
2018-12-17T19:35:35.623Z,2.50
2018-12-17T19:38:03.724Z,2.50
2018-12-17T19:40:32.026Z,2.50
2018-12-17T19:43:00.265Z,2.40
2018-12-17T19:45:28.428Z,2.40
2018-12-17T19:47:56.586Z,2.40
2018-12-17T19:50:24.713Z,2.30
2018-12-17T19:52:52.843Z,2.30
2018-12-17T19:55:21.168Z,2.40
2018-12-17T19:57:49.553Z,2.40
2018-12-17T20:00:17.804Z,2.40
2018-12-17T20:02:47.158Z,2.40
2018-12-17T20:05:15.800Z,2.40
2018-12-17T20:07:43.881Z,2.40
2018-12-17T20:10:17.587Z,2.30
2018-12-17T20:12:45.649Z,2.30
2018-12-17T20:15:13.762Z,2.30
2018-12-17T20:17:41.916Z,2.30
2018-12-17T20:20:10.032Z,2.30
2018-12-17T20:22:38.168Z,2.30
2018-12-17T20:25:06.328Z,2.30
2018-12-17T20:27:34.551Z,2.30
2018-12-17T20:30:02.762Z,2.30
2018-12-17T20:32:31.056Z,2.30
2018-12-17T20:34:59.216Z,2.40
2018-12-17T20:37:27.374Z,2.30
2018-12-17T20:39:55.526Z,2.30
2018-12-17T20:42:23.636Z,2.30
2018-12-17T20:44:51.813Z,2.20
2018-12-17T20:47:19.989Z,2.30
2018-12-17T20:49:48.152Z,2.20
2018-12-17T20:52:16.292Z,2.20
2018-12-17T20:54:44.446Z,2.20
2018-12-17T20:57:12.575Z,2.20
2018-12-17T20:59:40.754Z,2.20
2018-12-17T21:02:09.017Z,2.10
2018-12-17T21:04:37.194Z,2.20
2018-12-17T21:07:05.329Z,2.30
2018-12-17T21:09:33.480Z,2.30
2018-12-17T21:12:01.598Z,2.20
2018-12-17T21:14:29.803Z,2.20
2018-12-17T21:16:58.019Z,2.10
2018-12-17T21:19:26.136Z,2.10
2018-12-17T21:21:54.236Z,2.10
2018-12-17T21:24:22.384Z,2.10
2018-12-17T21:26:50.519Z,2.10
2018-12-17T21:29:18.692Z,2.10
2018-12-17T21:31:46.931Z,2.10
2018-12-17T21:34:15.063Z,2.00
2018-12-17T21:36:43.152Z,1.90
2018-12-17T21:39:11.413Z,1.80
2018-12-17T21:41:39.508Z,2.00
2018-12-17T21:44:07.636Z,2.00
2018-12-17T21:46:36.028Z,2.00
2018-12-17T21:49:04.131Z,1.90
2018-12-17T21:51:32.197Z,2.00
2018-12-17T21:54:00.355Z,2.00
2018-12-17T21:56:28.440Z,2.00
2018-12-17T21:58:56.533Z,2.00
2018-12-17T22:01:24.795Z,2.10
2018-12-17T22:03:52.932Z,2.10
2018-12-17T22:06:21.120Z,2.10
2018-12-17T22:08:49.272Z,2.10
2018-12-17T22:11:17.376Z,2.10
2018-12-17T22:13:45.468Z,2.00
2018-12-17T22:16:13.807Z,2.00
2018-12-17T22:18:42.072Z,2.00
2018-12-17T22:21:10.183Z,1.90
2018-12-17T22:23:38.475Z,1.90
2018-12-17T22:26:06.528Z,2.00
2018-12-17T22:28:34.642Z,2.10
2018-12-17T22:31:02.796Z,2.00
2018-12-17T22:33:30.908Z,2.00
2018-12-17T22:35:59.013Z,2.10
2018-12-17T22:38:27.295Z,2.10
2018-12-17T22:40:55.379Z,2.10
2018-12-17T22:43:23.488Z,2.10
2018-12-17T22:45:51.651Z,2.10
2018-12-17T22:48:19.747Z,2.00
2018-12-17T22:50:47.839Z,2.10
2018-12-17T22:53:15.988Z,2.20
2018-12-17T22:55:44.172Z,2.40
2018-12-17T22:58:12.259Z,2.40
2018-12-17T23:00:42.177Z,2.40
2018-12-17T23:03:10.316Z,2.30
2018-12-17T23:05:38.427Z,2.40
2018-12-17T23:08:06.551Z,2.40
2018-12-17T23:10:45.996Z,2.40
2018-12-17T23:13:25.324Z,2.50
2018-12-17T23:16:04.703Z,2.40
2018-12-17T23:18:31.940Z,2.30
2018-12-17T23:21:00.136Z,2.20
2018-12-17T23:23:28.497Z,2.20
2018-12-17T23:25:56.626Z,2.20
2018-12-17T23:28:24.781Z,2.20
2018-12-17T23:30:52.905Z,2.10
2018-12-17T23:33:21.036Z,2.10
2018-12-17T23:35:49.210Z,2.10
2018-12-17T23:38:17.325Z,2.10
2018-12-17T23:40:45.479Z,2.10
2018-12-17T23:43:13.679Z,2.10
2018-12-17T23:45:41.801Z,2.20
2018-12-17T23:48:09.895Z,2.10
2018-12-17T23:50:38.192Z,2.10
2018-12-17T23:53:06.320Z,2.20
2018-12-17T23:55:34.424Z,2.20
2018-12-17T23:58:02.748Z,2.20
